createdAt,value
2018-03-11T00:01:45.235Z,27.92
2018-03-11T00:04:16.073Z,29.95
2018-03-11T00:06:47.371Z,67.12
2018-03-11T00:09:18.173Z,98.32
2018-03-11T00:11:48.668Z,103.15
2018-03-11T00:14:19.431Z,77.57
2018-03-11T00:16:50.155Z,48.95
2018-03-11T00:19:21.566Z,37.04
2018-03-11T00:21:52.165Z,36.25
2018-03-11T00:24:23.530Z,30.90
2018-03-11T00:26:54.226Z,26.48
2018-03-11T00:29:25.228Z,26.23
2018-03-11T00:31:56.656Z,24.18
2018-03-11T00:34:27.387Z,24.15
2018-03-11T00:36:57.768Z,24.38
2018-03-11T00:39:28.484Z,23.20
2018-03-11T00:41:59.673Z,24.73
2018-03-11T00:44:30.345Z,27.58
2018-03-11T00:47:01.060Z,35.10
2018-03-11T00:49:32.536Z,50.10
2018-03-11T00:52:03.170Z,65.20
2018-03-11T00:54:34.232Z,85.60
2018-03-11T00:57:05.088Z,45.35
2018-03-11T00:59:36.432Z,37.00
2018-03-11T01:02:07.937Z,34.00
2018-03-11T01:04:38.488Z,31.54
2018-03-11T01:07:09.087Z,31.35
2018-03-11T01:09:40.525Z,33.24
2018-03-11T01:12:11.057Z,34.35
2018-03-11T01:14:42.090Z,34.60
2018-03-11T01:17:13.427Z,33.82
2018-03-11T01:19:45.377Z,31.30
2018-03-11T01:22:15.950Z,31.22
2018-03-11T01:24:46.646Z,30.50
2018-03-11T01:27:18.435Z,30.88
2018-03-11T01:29:48.753Z,30.42
2018-03-11T01:32:18.565Z,32.88
2018-03-11T01:34:49.256Z,33.67
2018-03-11T01:37:20.118Z,32.80
2018-03-11T01:39:50.667Z,32.08
2018-03-11T01:42:21.240Z,31.52
2018-03-11T01:44:52.127Z,30.23
2018-03-11T01:47:22.575Z,30.27
2018-03-11T01:49:53.288Z,29.00
2018-03-11T01:52:24.031Z,30.85
2018-03-11T01:54:55.490Z,31.96
2018-03-11T01:57:26.060Z,33.35
2018-03-11T01:59:56.616Z,33.22
2018-03-11T02:02:27.227Z,32.75
2018-03-11T02:04:58.200Z,34.40
2018-03-11T02:07:28.068Z,37.75
2018-03-11T02:09:58.746Z,37.70
2018-03-11T02:12:29.611Z,36.40
2018-03-11T02:15:00.118Z,35.03
2018-03-11T02:17:31.601Z,36.18
2018-03-11T02:20:03.648Z,35.50
2018-03-11T02:22:34.244Z,34.38
2018-03-11T02:25:05.172Z,33.80
2018-03-11T02:27:36.228Z,33.20
2018-03-11T02:30:07.136Z,34.55
2018-03-11T02:32:38.397Z,32.10
2018-03-11T02:35:09.079Z,34.80
2018-03-11T02:37:40.386Z,37.18
2018-03-11T02:40:11.192Z,39.42
2018-03-11T02:42:42.142Z,41.08
2018-03-11T02:45:13.084Z,41.13
2018-03-11T02:47:44.096Z,42.72
2018-03-11T02:50:14.704Z,45.03
2018-03-11T02:52:44.914Z,42.72
2018-03-11T02:55:15.578Z,40.50
2018-03-11T02:57:46.201Z,43.25
2018-03-11T03:00:17.164Z,46.40
2018-03-11T03:02:48.145Z,45.42
2018-03-11T03:05:19.555Z,45.76
2018-03-11T03:07:49.435Z,47.17
2018-03-11T03:10:20.271Z,47.30
2018-03-11T03:12:51.103Z,51.20
2018-03-11T03:15:22.634Z,49.62
2018-03-11T03:17:53.173Z,45.50
2018-03-11T03:20:23.752Z,47.38
2018-03-11T03:22:54.364Z,47.35
2018-03-11T03:25:25.329Z,45.63
2018-03-11T03:27:57.039Z,43.68
2018-03-11T03:30:27.421Z,43.20
2018-03-11T03:32:59.053Z,42.30
2018-03-11T03:35:29.865Z,39.93
2018-03-11T03:38:00.555Z,40.58
2018-03-11T03:40:31.220Z,42.35
2018-03-11T03:43:02.180Z,41.90
2018-03-11T03:45:34.041Z,41.86
2018-03-11T03:48:07.610Z,42.03
2018-03-11T03:50:36.802Z,41.45
2018-03-11T03:53:05.976Z,43.20
2018-03-11T03:55:36.585Z,43.25
2018-03-11T03:58:07.173Z,42.03
2018-03-11T04:00:38.648Z,39.32
2018-03-11T04:03:09.391Z,40.72
2018-03-11T04:05:39.769Z,40.10
2018-03-11T04:08:11.049Z,39.80
2018-03-11T04:10:42.523Z,38.12
2018-03-11T04:13:13.744Z,36.10
2018-03-11T04:15:44.456Z,35.95
2018-03-11T04:18:15.070Z,36.58
2018-03-11T04:20:45.879Z,39.38
2018-03-11T04:23:17.474Z,39.28
2018-03-11T04:25:46.717Z,39.44
2018-03-11T04:28:18.296Z,54.65
2018-03-11T04:30:49.068Z,54.45
2018-03-11T04:33:20.482Z,46.16
2018-03-11T04:35:51.289Z,40.97
2018-03-11T04:38:22.156Z,39.20
2018-03-11T04:40:53.164Z,38.00
2018-03-11T04:43:24.087Z,46.53
2018-03-11T04:45:55.476Z,80.34
2018-03-11T04:48:26.470Z,101.20
2018-03-11T04:50:57.276Z,58.08
2018-03-11T04:53:27.761Z,44.68
2018-03-11T04:55:58.406Z,43.83
2018-03-11T04:58:29.172Z,62.88
2018-03-11T05:01:00.585Z,67.66
2018-03-11T05:03:30.848Z,49.92
2018-03-11T05:06:02.696Z,41.94
2018-03-11T05:08:32.960Z,38.38
2018-03-11T05:11:03.612Z,37.14
2018-03-11T05:13:34.281Z,38.50
2018-03-11T05:16:05.922Z,41.68
2018-03-11T05:18:36.490Z,41.78
2018-03-11T05:21:07.213Z,43.22
2018-03-11T05:23:38.155Z,55.88
2018-03-11T05:26:09.172Z,60.42
2018-03-11T05:28:40.493Z,53.26
2018-03-11T05:31:12.426Z,43.08
2018-03-11T05:33:42.788Z,39.96
2018-03-11T05:36:13.453Z,38.03
2018-03-11T05:38:44.113Z,38.05
2018-03-11T05:41:15.768Z,38.72
2018-03-11T05:43:46.379Z,39.20
2018-03-11T05:46:17.268Z,38.22
2018-03-11T05:48:48.345Z,37.83
2018-03-11T05:51:19.503Z,35.92
2018-03-11T05:53:50.170Z,35.45
2018-03-11T05:56:21.194Z,36.25
2018-03-11T05:58:51.090Z,36.55
2018-03-11T06:01:21.856Z,36.58
2018-03-11T06:03:53.444Z,37.26
2018-03-11T06:06:24.497Z,41.83
2018-03-11T06:08:54.788Z,51.36
2018-03-11T06:11:25.528Z,45.47
2018-03-11T06:13:56.185Z,41.47
2018-03-11T06:16:27.607Z,42.22
2018-03-11T06:18:57.469Z,39.85
2018-03-11T06:21:28.825Z,40.32
2018-03-11T06:23:58.748Z,46.22
2018-03-11T06:26:29.471Z,49.05
2018-03-11T06:28:59.488Z,53.70
2018-03-11T06:31:30.122Z,52.90
2018-03-11T06:34:00.692Z,49.58
2018-03-11T06:36:31.338Z,45.80
2018-03-11T06:39:02.198Z,42.92
2018-03-11T06:41:33.538Z,41.12
2018-03-11T06:44:04.368Z,39.72
2018-03-11T06:46:35.319Z,38.88
2018-03-11T06:49:05.814Z,41.42
2018-03-11T06:51:37.453Z,43.64
2018-03-11T06:54:08.228Z,47.97
2018-03-11T06:56:39.713Z,46.00
2018-03-11T06:59:10.332Z,41.55
2018-03-11T07:01:45.889Z,42.78
2018-03-11T07:04:23.088Z,39.83
2018-03-11T07:06:52.439Z,41.73
2018-03-11T07:09:21.653Z,40.83
2018-03-11T07:11:50.785Z,44.85
2018-03-11T07:14:19.979Z,41.02
2018-03-11T07:16:57.313Z,41.33
2018-03-11T07:19:30.756Z,39.65
2018-03-11T07:22:07.502Z,31.98
2018-03-11T07:24:44.621Z,27.35
2018-03-11T07:27:13.432Z,25.53
2018-03-11T07:29:42.625Z,25.45
2018-03-11T07:32:11.448Z,26.63
2018-03-11T07:34:40.573Z,26.62
2018-03-11T07:37:09.742Z,25.35
2018-03-11T07:39:38.768Z,26.40
2018-03-11T07:42:07.885Z,26.37
2018-03-11T07:44:37.096Z,26.33
2018-03-11T07:47:06.441Z,26.15
2018-03-11T07:49:35.644Z,25.98
2018-03-11T07:52:04.923Z,25.00
2018-03-11T07:54:34.762Z,24.30
2018-03-11T07:57:03.963Z,23.55
2018-03-11T07:59:33.613Z,24.33
2018-03-11T08:02:05.677Z,22.13
2018-03-11T08:04:34.890Z,22.02
2018-03-11T08:07:04.827Z,21.67
2018-03-11T08:09:35.512Z,22.17
2018-03-11T08:12:06.173Z,18.67
2018-03-11T08:14:37.088Z,20.35
2018-03-11T08:17:07.704Z,21.45
2018-03-11T08:19:38.420Z,21.25
2018-03-11T08:22:09.223Z,20.90
2018-03-11T08:24:41.509Z,20.90
2018-03-11T08:27:11.457Z,21.67
2018-03-11T08:29:42.241Z,20.27
2018-03-11T08:32:12.473Z,21.90
2018-03-11T08:34:43.327Z,20.25
2018-03-11T08:37:14.697Z,21.20
2018-03-11T08:39:45.331Z,21.35
2018-03-11T08:42:16.565Z,21.83
2018-03-11T08:44:47.233Z,22.45
2018-03-11T08:47:19.103Z,20.58
2018-03-11T08:49:49.937Z,21.25
2018-03-11T08:52:20.347Z,21.05
2018-03-11T08:54:51.975Z,21.35
2018-03-11T08:57:22.508Z,20.32
2018-03-11T08:59:53.076Z,22.00
2018-03-11T09:02:24.225Z,21.33
2018-03-11T09:04:55.704Z,21.46
2018-03-11T09:07:24.588Z,22.80
2018-03-11T09:09:56.409Z,22.66
2018-03-11T09:12:27.880Z,20.72
2018-03-11T09:14:59.317Z,21.64
2018-03-11T09:17:29.836Z,20.78
2018-03-11T09:20:00.277Z,19.72
2018-03-11T09:22:30.941Z,18.48
2018-03-11T09:25:01.523Z,18.36
2018-03-11T09:27:32.316Z,16.75
2018-03-11T09:30:03.169Z,19.33
2018-03-11T09:32:35.347Z,18.78
2018-03-11T09:35:04.844Z,17.18
2018-03-11T09:37:35.498Z,16.60
2018-03-11T09:40:06.645Z,16.40
2018-03-11T09:42:39.248Z,16.74
2018-03-11T09:45:08.853Z,17.48
2018-03-11T09:47:39.456Z,17.50
2018-03-11T09:50:10.219Z,16.23
2018-03-11T09:52:40.806Z,16.33
2018-03-11T09:55:11.503Z,15.82
2018-03-11T09:57:42.423Z,18.23
2018-03-11T10:00:13.311Z,17.67
2018-03-11T10:02:44.088Z,18.05
2018-03-11T10:05:15.571Z,17.44
2018-03-11T10:07:46.364Z,16.60
2018-03-11T10:10:17.277Z,18.98
2018-03-11T10:12:48.278Z,19.40
2018-03-11T10:15:19.225Z,20.75
2018-03-11T10:17:50.185Z,18.50
2018-03-11T10:20:21.227Z,17.27
2018-03-11T10:22:52.570Z,17.72
2018-03-11T10:25:23.197Z,17.15
2018-03-11T10:27:54.203Z,17.67
2018-03-11T10:30:25.196Z,16.80
2018-03-11T10:32:56.465Z,19.74
2018-03-11T10:35:27.269Z,17.00
2018-03-11T10:37:58.135Z,15.75
2018-03-11T10:40:29.637Z,14.36
2018-03-11T10:43:00.186Z,16.30
2018-03-11T10:45:31.215Z,15.15
2018-03-11T10:48:02.105Z,15.80
2018-03-11T10:50:33.488Z,16.54
2018-03-11T10:53:04.154Z,16.70
2018-03-11T10:55:35.896Z,17.52
2018-03-11T10:58:06.510Z,18.42
2018-03-11T11:00:42.649Z,18.67
2018-03-11T11:03:28.116Z,17.58
2018-03-11T11:06:03.670Z,17.67
2018-03-11T11:08:33.094Z,20.07
2018-03-11T11:11:01.967Z,16.23
2018-03-11T11:13:30.945Z,16.63
2018-03-11T11:16:00.068Z,15.53
2018-03-11T11:18:29.599Z,16.48
2018-03-11T11:20:58.749Z,15.73
2018-03-11T11:23:29.050Z,13.85
2018-03-11T11:25:59.225Z,13.20
2018-03-11T11:28:28.487Z,12.98
2018-03-11T11:30:58.283Z,14.23
2018-03-11T11:33:28.695Z,11.00
2018-03-11T11:35:57.563Z,11.50
2018-03-11T11:38:26.420Z,10.67
2018-03-11T11:40:55.314Z,12.07
2018-03-11T11:43:24.186Z,12.70
2018-03-11T11:45:53.065Z,12.20
2018-03-11T11:48:22.007Z,12.63
2018-03-11T11:50:52.596Z,10.50
2018-03-11T11:53:23.543Z,10.80
2018-03-11T11:55:54.212Z,9.65
2018-03-11T11:58:24.744Z,10.40
2018-03-11T12:00:55.352Z,10.65
2018-03-11T12:03:26.216Z,9.27
2018-03-11T12:05:57.083Z,10.60
2018-03-11T12:08:28.462Z,9.22
2018-03-11T12:10:59.280Z,10.15
2018-03-11T12:13:30.256Z,9.18
2018-03-11T12:16:01.136Z,9.98
2018-03-11T12:18:32.177Z,10.57
2018-03-11T12:21:03.195Z,10.30
2018-03-11T12:23:34.240Z,10.18
2018-03-11T12:26:05.151Z,9.90
2018-03-11T12:28:36.555Z,10.32
2018-03-11T12:31:07.190Z,10.70
2018-03-11T12:33:37.782Z,10.20
2018-03-11T12:36:08.362Z,10.38
2018-03-11T12:38:38.766Z,9.00
2018-03-11T12:41:09.403Z,8.77
2018-03-11T12:43:40.173Z,9.50
2018-03-11T12:46:11.155Z,9.55
2018-03-11T12:48:42.271Z,9.82
2018-03-11T12:51:13.167Z,9.00
2018-03-11T12:53:43.937Z,8.98
2018-03-11T12:56:14.466Z,8.42
2018-03-11T12:58:45.191Z,8.93
2018-03-11T13:01:16.159Z,8.93
2018-03-11T13:03:47.540Z,8.16
2018-03-11T13:06:18.151Z,8.15
2018-03-11T13:08:49.153Z,8.88
2018-03-11T13:11:19.732Z,8.25
2018-03-11T13:13:50.425Z,7.35
2018-03-11T13:16:20.878Z,7.84
2018-03-11T13:18:51.536Z,7.87
2018-03-11T13:21:22.209Z,7.85
2018-03-11T13:23:53.286Z,7.22
2018-03-11T13:26:24.156Z,7.07
2018-03-11T13:28:55.191Z,8.07
2018-03-11T13:31:28.254Z,7.46
2018-03-11T13:34:18.746Z,8.62
2018-03-11T13:36:47.855Z,8.50
2018-03-11T13:39:27.768Z,9.53
2018-03-11T13:41:56.788Z,9.07
2018-03-11T13:44:25.906Z,10.23
2018-03-11T13:47:09.640Z,9.13
2018-03-11T13:49:38.820Z,9.90
2018-03-11T13:52:18.688Z,11.13
2018-03-11T13:54:47.738Z,10.43
2018-03-11T14:00:33.543Z,8.67
2018-03-11T14:03:02.731Z,8.95
2018-03-11T14:05:31.801Z,9.47
2018-03-11T14:08:00.796Z,11.70
2018-03-11T14:10:29.921Z,9.23
2018-03-11T14:12:58.769Z,9.30
2018-03-11T14:15:27.910Z,10.00
2018-03-11T14:17:56.871Z,8.10
2018-03-11T14:20:25.786Z,7.70
2018-03-11T14:22:54.880Z,8.10
2018-03-11T14:25:23.877Z,7.43
2018-03-11T14:27:52.873Z,7.63
2018-03-11T14:30:21.843Z,7.70
2018-03-11T14:32:50.945Z,8.93
2018-03-11T14:35:19.852Z,8.70
2018-03-11T14:37:48.837Z,7.57
2018-03-11T14:40:17.822Z,7.63
2018-03-11T14:42:46.771Z,6.93
2018-03-11T14:45:15.722Z,6.00
2018-03-11T14:47:44.859Z,6.20
2018-03-11T14:50:13.750Z,5.87
2018-03-11T14:52:42.692Z,6.10
2018-03-11T14:55:11.927Z,6.80
2018-03-11T14:57:40.800Z,8.80
2018-03-11T15:00:09.820Z,16.20
2018-03-11T15:02:38.864Z,5.93
2018-03-11T15:05:08.664Z,7.23
2018-03-11T15:07:37.771Z,6.93
2018-03-11T15:10:06.907Z,6.60
2018-03-11T15:12:35.818Z,8.03
2018-03-11T15:15:04.945Z,7.77
2018-03-11T15:17:33.870Z,12.10
2018-03-11T15:20:02.765Z,11.93
2018-03-11T15:22:31.816Z,16.90
2018-03-11T15:25:00.775Z,7.47
2018-03-11T15:27:29.756Z,42.10
2018-03-11T15:29:58.916Z,21.97
2018-03-11T15:32:27.878Z,19.10
2018-03-11T15:34:57.595Z,15.83
2018-03-11T15:37:26.631Z,16.65
2018-03-11T15:39:56.611Z,13.05
2018-03-11T15:42:25.488Z,32.90
2018-03-11T15:44:55.924Z,16.80
2018-03-11T15:47:24.929Z,15.87
2018-03-11T15:49:54.189Z,13.43
2018-03-11T15:52:23.726Z,15.80
2018-03-11T15:54:53.748Z,16.23
2018-03-11T15:57:23.182Z,19.40
2018-03-11T15:59:52.654Z,12.20
2018-03-11T16:02:24.048Z,13.72
2018-03-11T16:04:53.958Z,16.47
2018-03-11T16:07:22.839Z,10.73
2018-03-11T16:09:52.553Z,13.52
2018-03-11T16:12:23.275Z,11.45
2018-03-11T16:14:59.413Z,11.90
2018-03-11T16:17:28.240Z,12.55
2018-03-11T16:19:57.104Z,9.20
2018-03-11T16:22:27.842Z,8.75
2018-03-11T16:24:58.884Z,8.88
2018-03-11T16:27:29.678Z,10.30
2018-03-11T16:30:00.402Z,11.25
2018-03-11T16:32:31.389Z,12.30
2018-03-11T16:35:01.197Z,13.20
2018-03-11T16:37:33.007Z,17.05
2018-03-11T16:40:05.515Z,18.54
2018-03-11T16:42:36.023Z,17.84
2018-03-11T16:45:05.740Z,13.02
2018-03-11T16:47:37.294Z,13.50
2018-03-11T16:50:07.142Z,9.32
2018-03-11T16:52:38.603Z,12.40
2018-03-11T16:55:08.392Z,9.90
2018-03-11T16:57:39.420Z,9.50
2018-03-11T17:00:10.233Z,10.00
2018-03-11T17:02:42.105Z,9.68
2018-03-11T17:05:13.274Z,10.27
2018-03-11T17:07:44.565Z,10.13
2018-03-11T17:10:14.283Z,11.23
2018-03-11T17:12:46.315Z,13.02
2018-03-11T17:15:19.477Z,12.95
2018-03-11T17:17:48.490Z,11.83
2018-03-11T17:20:19.059Z,13.14
2018-03-11T17:22:49.640Z,14.30
2018-03-11T17:25:21.133Z,15.57
2018-03-11T17:27:51.890Z,16.58
2018-03-11T17:30:23.277Z,22.35
2018-03-11T17:32:53.837Z,24.64
2018-03-11T17:35:24.609Z,18.87
2018-03-11T17:37:55.452Z,18.83
2018-03-11T17:40:26.306Z,15.90
2018-03-11T17:42:58.876Z,15.07
2018-03-11T17:45:30.806Z,15.84
2018-03-11T17:48:01.338Z,15.85
2018-03-11T17:50:31.886Z,16.84
2018-03-11T17:53:01.858Z,23.80
2018-03-11T17:55:32.603Z,36.17
2018-03-11T17:58:03.748Z,19.25
2018-03-11T18:00:33.365Z,18.23
2018-03-11T18:03:04.201Z,19.83
2018-03-11T18:05:35.392Z,18.42
2018-03-11T18:08:06.413Z,28.27
2018-03-11T18:10:36.931Z,36.52
2018-03-11T18:13:07.779Z,24.60
2018-03-11T18:15:38.624Z,29.33
2018-03-11T18:18:09.381Z,27.98
2018-03-11T18:20:40.230Z,26.02
2018-03-11T18:23:11.265Z,24.60
2018-03-11T18:25:41.400Z,23.62
2018-03-11T18:28:11.994Z,23.08
2018-03-11T18:30:42.928Z,23.08
2018-03-11T18:33:14.024Z,36.53
2018-03-11T18:35:44.891Z,23.25
2018-03-11T18:38:15.980Z,21.95
2018-03-11T18:40:46.888Z,22.23
2018-03-11T18:43:17.982Z,22.58
2018-03-11T18:45:49.025Z,21.90
2018-03-11T18:48:19.962Z,23.10
2018-03-11T18:50:50.957Z,25.00
2018-03-11T18:53:21.979Z,35.38
2018-03-11T18:55:52.985Z,41.50
2018-03-11T18:58:23.929Z,47.67
2018-03-11T19:00:54.950Z,55.42
2018-03-11T19:03:25.989Z,27.13
2018-03-11T19:05:56.975Z,23.33
2018-03-11T19:08:27.820Z,23.42
2018-03-11T19:10:58.855Z,22.15
2018-03-11T19:13:29.919Z,24.40
2018-03-11T19:16:00.872Z,29.27
2018-03-11T19:18:31.926Z,28.05
2018-03-11T19:21:02.916Z,25.45
2018-03-11T19:23:33.979Z,25.80
2018-03-11T19:26:04.829Z,26.30
2018-03-11T19:28:36.233Z,26.27
2018-03-11T19:31:06.954Z,26.15
2018-03-11T19:33:38.004Z,27.08
2018-03-11T19:36:08.894Z,27.30
2018-03-11T19:38:40.032Z,28.15
2018-03-11T19:41:10.928Z,30.25
2018-03-11T19:43:42.125Z,28.90
2018-03-11T19:46:12.864Z,28.08
2018-03-11T19:48:44.073Z,28.60
2018-03-11T19:51:15.193Z,33.00
2018-03-11T19:53:47.305Z,33.53
2018-03-11T19:56:19.239Z,31.02
2018-03-11T19:58:49.933Z,31.70
2018-03-11T20:01:20.679Z,32.84
2018-03-11T20:03:52.465Z,34.97
2018-03-11T20:06:24.320Z,37.58
2018-03-11T20:08:54.200Z,32.78
2018-03-11T20:11:25.038Z,24.45
2018-03-11T20:13:57.005Z,21.57
2018-03-11T20:16:26.889Z,18.80
2018-03-11T20:18:57.732Z,14.45
2018-03-11T20:21:28.489Z,13.48
2018-03-11T20:23:59.159Z,14.54
2018-03-11T20:26:29.889Z,16.50
2018-03-11T20:28:59.978Z,14.98
2018-03-11T20:31:30.785Z,23.95
2018-03-11T20:34:01.587Z,19.90
2018-03-11T20:36:32.464Z,19.12
2018-03-11T20:39:03.217Z,16.90
2018-03-11T20:41:34.524Z,19.56
2018-03-11T20:44:05.231Z,18.48
2018-03-11T20:46:35.680Z,17.62
2018-03-11T20:49:06.321Z,16.70
2018-03-11T20:51:37.180Z,16.15
2018-03-11T20:54:07.740Z,19.02
2018-03-11T20:56:38.348Z,20.50
2018-03-11T20:59:09.211Z,21.55
2018-03-11T21:01:39.750Z,24.52
2018-03-11T21:04:10.548Z,21.65
2018-03-11T21:06:41.169Z,20.15
2018-03-11T21:09:12.580Z,20.86
2018-03-11T21:11:43.219Z,40.67
2018-03-11T21:14:13.737Z,45.80
2018-03-11T21:16:44.333Z,33.00
2018-03-11T21:19:15.266Z,29.85
2018-03-11T21:21:46.261Z,30.70
2018-03-11T21:24:17.156Z,30.05
2018-03-11T21:26:48.419Z,30.78
2018-03-11T21:29:19.260Z,31.02
2018-03-11T21:31:49.804Z,28.92
2018-03-11T21:34:19.847Z,32.60
2018-03-11T21:36:51.399Z,32.68
2018-03-11T21:39:21.961Z,33.25
2018-03-11T21:41:53.503Z,37.10
2018-03-11T21:44:24.328Z,61.55
2018-03-11T21:46:55.655Z,106.46
2018-03-11T21:49:26.496Z,83.07
2018-03-11T21:51:57.385Z,130.93
2018-03-11T21:54:27.802Z,56.70
2018-03-11T21:56:57.848Z,48.27
2018-03-11T21:59:28.877Z,33.80
2018-03-11T22:01:59.752Z,33.40
2018-03-11T22:04:31.103Z,34.08
2018-03-11T22:07:02.432Z,36.86
2018-03-11T22:09:33.246Z,32.03
2018-03-11T22:12:04.178Z,30.70
2018-03-11T22:14:35.292Z,31.15
2018-03-11T22:17:06.537Z,32.40
2018-03-11T22:19:37.321Z,32.38
2018-03-11T22:22:08.500Z,151.87
2018-03-11T22:24:41.373Z,49.10
2018-03-11T22:27:10.488Z,29.30
2018-03-11T22:29:41.426Z,23.50
2018-03-11T22:32:12.065Z,18.30
2018-03-11T22:34:42.471Z,16.07
2018-03-11T22:37:13.200Z,15.48
2018-03-11T22:39:44.518Z,14.74
2018-03-11T22:42:15.152Z,16.35
2018-03-11T22:44:45.798Z,16.50
2018-03-11T22:47:16.389Z,15.27
2018-03-11T22:49:47.541Z,14.95
2018-03-11T22:52:18.228Z,14.27
2018-03-11T22:54:49.249Z,13.82
2018-03-11T22:57:20.144Z,14.35
2018-03-11T22:59:50.759Z,15.05
2018-03-11T23:02:21.393Z,14.30
2018-03-11T23:04:52.307Z,15.73
2018-03-11T23:07:23.977Z,16.30
2018-03-11T23:09:54.876Z,16.82
2018-03-11T23:12:25.516Z,17.45
2018-03-11T23:14:56.025Z,19.70
2018-03-11T23:17:26.512Z,18.92
2018-03-11T23:19:58.192Z,19.48
2018-03-11T23:22:28.509Z,19.77
2018-03-11T23:24:59.224Z,20.15
2018-03-11T23:27:29.043Z,19.40
2018-03-11T23:29:59.832Z,20.55
2018-03-11T23:32:31.217Z,21.24
2018-03-11T23:35:02.212Z,20.73
2018-03-11T23:37:33.927Z,20.56
2018-03-11T23:40:04.609Z,21.10
2018-03-11T23:42:35.735Z,21.52
2018-03-11T23:45:06.355Z,21.50
2018-03-11T23:47:40.800Z,20.82
2018-03-11T23:50:09.776Z,21.43
2018-03-11T23:52:38.899Z,21.20
2018-03-11T23:55:09.073Z,20.90
2018-03-11T23:57:45.029Z,22.75
